Time;durP1;ratioP1;P1;durP2;ratioP2;P2;SDS_P1;SDS_P2;PMS_P1;PMS_P2;Temp;Humidity;BMP_temperature;BMP_pressure;BME280_temperature;BME280_humidity;BME280_pressure;Samples;Min_cycle;Max_cycle;Signal;HPM_P1;HPM_P2
2022/09/12 00:00:26;;;;;;;3.00;2.80;;;13.60;99.90;;;;;;4968594;28;20092;-82
2022/09/12 00:02:55;;;;;;;3.42;2.55;;;13.70;99.90;;;;;;4968044;28;20130;-82
2022/09/12 00:05:21;;;;;;;6.15;3.08;;;13.60;99.90;;;;;;4964071;28;20137;-82
2022/09/12 00:07:47;;;;;;;3.55;2.60;;;13.70;99.90;;;;;;4970189;28;20039;-80
2022/09/12 00:10:13;;;;;;;2.45;2.25;;;13.60;99.90;;;;;;4965552;28;20106;-82
2022/09/12 00:12:39;;;;;;;4.28;2.78;;;13.60;99.90;;;;;;4965810;28;20038;-82
2022/09/12 00:15:05;;;;;;;3.55;3.13;;;13.60;99.90;;;;;;4965530;28;20042;-82
2022/09/12 00:17:34;;;;;;;3.65;3.35;;;13.60;99.90;;;;;;4996084;28;20043;-82
2022/09/12 00:19:59;;;;;;;3.92;3.65;;;13.70;99.90;;;;;;4963967;28;20086;-83
2022/09/12 00:22:25;;;;;;;3.53;3.22;;;13.60;99.90;;;;;;4963680;28;20941;-81
2022/09/12 00:24:51;;;;;;;2.13;2.00;;;13.60;99.90;;;;;;4966308;28;20073;-82
2022/09/12 00:27:16;;;;;;;5.15;2.10;;;13.60;99.90;;;;;;4965213;28;20097;-82
2022/09/12 00:29:42;;;;;;;2.92;1.80;;;13.50;99.90;;;;;;4963749;28;20035;-81
2022/09/12 00:32:07;;;;;;;2.33;2.22;;;13.50;99.90;;;;;;4965903;28;20158;-82
2022/09/12 00:34:33;;;;;;;35.38;3.40;;;13.40;99.90;;;;;;4969091;28;20734;-82
2022/09/12 00:36:58;;;;;;;31.58;4.07;;;13.40;99.90;;;;;;4967337;28;20730;-82
2022/09/12 00:39:24;;;;;;;136.25;6.95;;;13.30;99.90;;;;;;4967049;28;20042;-83
2022/09/12 00:41:49;;;;;;;54.22;4.70;;;13.30;99.90;;;;;;4978657;28;20074;-83
2022/09/12 00:44:15;;;;;;;3.53;2.80;;;13.30;99.90;;;;;;4966031;28;20146;-79
2022/09/12 00:46:45;;;;;;;3.97;2.28;;;13.30;99.90;;;;;;4981102;28;20065;-82
2022/09/12 00:49:12;;;;;;;3.97;2.58;;;13.30;99.90;;;;;;4963322;28;20043;-82
2022/09/12 00:51:44;;;;;;;4.43;3.00;;;13.20;99.90;;;;;;4962891;28;20046;-83
2022/09/12 00:54:14;;;;;;;4.95;2.83;;;13.20;99.90;;;;;;4967253;28;20057;-82
2022/09/12 00:56:43;;;;;;;6.63;3.15;;;13.30;99.90;;;;;;4992635;28;20086;-82
2022/09/12 00:59:36;;;;;;;4.50;4.20;;;13.30;99.90;;;;;;4965626;28;20154;-81
2022/09/12 01:02:02;;;;;;;6.53;5.93;;;13.30;99.90;;;;;;4965204;28;20125;-82
2022/09/12 01:04:29;;;;;;;12.15;8.95;;;13.30;99.90;;;;;;4966806;28;20074;-82
2022/09/12 01:06:57;;;;;;;8.70;7.95;;;13.40;99.90;;;;;;4962874;28;20035;-82
2022/09/12 01:09:24;;;;;;;9.15;8.25;;;13.40;99.90;;;;;;4965634;28;20038;-82
2022/09/12 01:11:51;;;;;;;9.93;7.22;;;13.50;99.90;;;;;;4994671;28;20034;-83
2022/09/12 01:14:18;;;;;;;7.20;6.60;;;13.40;99.90;;;;;;4966517;28;20042;-82
2022/09/12 01:16:45;;;;;;;8.90;7.68;;;13.50;99.90;;;;;;4964398;28;20541;-82
2022/09/12 01:19:11;;;;;;;10.82;9.88;;;13.40;99.90;;;;;;4980164;28;20046;-82
2022/09/12 01:22:12;;;;;;;10.18;9.38;;;13.50;99.90;;;;;;4964579;28;20047;-82
2022/09/12 01:25:06;;;;;;;9.43;8.63;;;13.50;99.90;;;;;;4977181;28;20065;-83
2022/09/12 01:27:55;;;;;;;11.07;8.20;;;13.50;99.90;;;;;;4968294;28;20039;-83
2022/09/12 01:30:50;;;;;;;9.80;8.90;;;13.50;99.90;;;;;;4970954;28;20074;-83
2022/09/12 01:33:54;;;;;;;5.70;5.30;;;13.50;99.90;;;;;;4968187;28;20047;-82
2022/09/12 01:36:50;;;;;;;4.95;4.55;;;13.40;99.90;;;;;;4968467;28;20116;-83
2022/09/12 01:39:56;;;;;;;23.10;6.85;;;13.30;99.90;;;;;;4962565;28;20031;-82
2022/09/12 01:42:57;;;;;;;22.40;7.32;;;13.20;99.90;;;;;;4966671;28;20109;-82
2022/09/12 01:45:55;;;;;;;5.20;4.70;;;13.20;99.90;;;;;;4890720;29;20504;-82
2022/09/12 01:48:28;;;;;;;6.18;4.45;;;13.20;99.90;;;;;;4993646;28;20432;-82
2022/09/12 01:51:21;;;;;;;5.50;4.65;;;13.20;99.90;;;;;;4963175;28;20041;-83
2022/09/12 01:53:55;;;;;;;6.22;5.63;;;13.20;99.90;;;;;;4966052;28;20058;-81
2022/09/12 01:56:25;;;;;;;7.40;6.70;;;13.20;99.90;;;;;;4961899;28;20039;-82
2022/09/12 01:59:19;;;;;;;8.25;6.75;;;13.20;99.90;;;;;;4963502;28;20050;-81
2022/09/12 02:02:00;;;;;;;4.80;4.43;;;13.10;99.90;;;;;;4955925;28;20507;-82
2022/09/12 02:04:31;;;;;;;7.88;5.55;;;13.10;99.90;;;;;;4964567;28;20047;-82
2022/09/12 02:07:02;;;;;;;9.00;8.07;;;13.10;99.90;;;;;;4964427;28;20046;-82
2022/09/12 02:09:53;;;;;;;8.93;8.23;;;13.10;99.90;;;;;;4964214;28;20034;-82
2022/09/12 02:12:30;;;;;;;7.72;7.03;;;13.20;99.90;;;;;;4963121;28;20031;-82
2022/09/12 02:15:06;;;;;;;11.93;10.82;;;13.10;99.90;;;;;;4966435;28;20081;-81
2022/09/12 02:17:37;;;;;;;10.63;9.80;;;13.20;99.90;;;;;;4961965;28;20042;-82
2022/09/12 02:20:09;;;;;;;5.75;5.25;;;13.20;99.90;;;;;;4962623;28;20491;-82
2022/09/12 02:22:37;;;;;;;5.35;4.85;;;13.20;99.90;;;;;;4955487;28;20051;-82
2022/09/12 02:25:05;;;;;;;5.53;4.80;;;13.10;99.90;;;;;;4964492;28;20499;-82
2022/09/12 02:27:41;;;;;;;8.63;6.40;;;13.00;99.90;;;;;;4960787;28;20563;-82
2022/09/12 02:30:08;;;;;;;4.78;4.38;;;13.00;99.90;;;;;;4965466;28;20687;-81
2022/09/12 02:32:43;;;;;;;4.00;3.70;;;13.00;99.90;;;;;;4965587;28;20047;-83
2022/09/12 02:35:21;;;;;;;;;;;13.00;99.90;;;;;;4964404;28;20122;-82
2022/09/12 02:38:07;;;;;;;4.22;3.80;;;12.90;99.90;;;;;;4994540;28;19976;-82
2022/09/12 02:40:35;;;;;;;6.68;4.00;;;12.90;99.90;;;;;;4963769;28;20074;-83
2022/09/12 02:43:03;;;;;;;6.75;4.50;;;12.90;99.90;;;;;;4963124;28;20047;-82
2022/09/12 02:45:31;;;;;;;7.10;6.53;;;12.90;99.90;;;;;;4950863;28;20152;-81
2022/09/12 02:48:06;;;;;;;9.20;6.80;;;12.80;99.90;;;;;;4992874;28;20039;-82
2022/09/12 02:50:32;;;;;;;8.10;7.40;;;12.90;99.90;;;;;;4963988;28;20487;-82
2022/09/12 02:53:03;;;;;;;10.07;9.10;;;12.80;99.90;;;;;;4979202;28;20070;-82
2022/09/12 02:55:32;;;;;;;12.07;10.55;;;12.80;99.90;;;;;;4977829;28;20050;-82
2022/09/12 02:58:01;;;;;;;12.23;11.05;;;12.80;99.90;;;;;;4966694;28;20859;-82
2022/09/12 03:00:35;;;;;;;10.57;9.57;;;12.80;99.90;;;;;;4983145;28;20051;-82
2022/09/12 03:03:20;;;;;;;12.27;11.02;;;12.70;99.90;;;;;;4955497;28;20042;-82
2022/09/12 03:05:58;;;;;;;13.73;12.32;;;12.80;99.90;;;;;;4969181;28;20150;-81
2022/09/12 03:08:44;;;;;;;14.65;13.13;;;12.80;99.90;;;;;;4966611;28;20062;-82
2022/09/12 03:11:36;;;;;;;13.02;11.85;;;13.00;99.90;;;;;;4964167;28;20429;-82
2022/09/12 03:14:12;;;;;;;15.20;13.88;;;12.80;99.90;;;;;;4995935;28;20126;-82
2022/09/12 03:16:51;;;;;;;18.15;16.23;;;12.80;99.90;;;;;;4967502;28;20097;-82
2022/09/12 03:19:28;;;;;;;18.27;16.48;;;12.90;99.90;;;;;;4970084;28;20512;-82
2022/09/12 03:22:18;;;;;;;15.88;14.18;;;12.90;99.90;;;;;;4980931;28;20506;-82
2022/09/12 03:25:03;;;;;;;10.45;9.65;;;13.00;99.90;;;;;;4982203;28;20051;-82
2022/09/12 03:27:35;;;;;;;9.75;8.90;;;12.90;99.90;;;;;;4967445;28;20070;-79
2022/09/12 03:30:05;;;;;;;8.45;7.70;;;12.90;99.90;;;;;;4966832;28;20511;-81
2022/09/12 03:32:50;;;;;;;10.60;9.55;;;12.90;99.90;;;;;;4971125;28;20039;-82
2022/09/12 03:35:18;;;;;;;9.32;8.52;;;12.90;99.90;;;;;;4964701;28;20488;-82
2022/09/12 03:37:45;;;;;;;11.85;10.75;;;12.80;99.90;;;;;;4967236;28;20432;-82
2022/09/12 03:40:11;;;;;;;15.85;14.52;;;12.90;99.90;;;;;;4966627;28;20397;-81
2022/09/12 03:42:37;;;;;;;10.15;8.90;;;12.90;99.90;;;;;;4966165;28;20062;-82
2022/09/12 03:45:04;;;;;;;11.55;10.57;;;12.90;99.90;;;;;;4966535;28;20506;-82
2022/09/12 03:47:30;;;;;;;10.35;9.43;;;12.80;99.90;;;;;;4967038;28;20118;-82
2022/09/12 03:49:55;;;;;;;13.25;12.07;;;12.80;99.90;;;;;;4969776;28;20479;-81
2022/09/12 03:52:21;;;;;;;15.93;14.30;;;12.80;99.90;;;;;;4969149;28;20035;-82
2022/09/12 03:54:47;;;;;;;15.05;13.75;;;12.80;99.90;;;;;;4968377;28;20077;-80
2022/09/12 03:57:13;;;;;;;16.40;14.02;;;12.80;99.90;;;;;;4965636;28;20137;-82
2022/09/12 03:59:38;;;;;;;16.33;14.75;;;12.80;99.90;;;;;;4963853;28;20070;-82
2022/09/12 04:02:04;;;;;;;18.13;16.30;;;12.80;99.90;;;;;;4964089;28;20496;-79
2022/09/12 04:04:30;;;;;;;23.60;16.40;;;12.70;99.90;;;;;;4972016;28;20494;-80
2022/09/12 04:06:56;;;;;;;16.98;15.27;;;12.80;99.90;;;;;;4950021;28;20061;-81
2022/09/12 04:09:22;;;;;;;16.85;15.18;;;12.80;99.90;;;;;;4964999;28;20039;-80
2022/09/12 04:11:47;;;;;;;12.20;11.07;;;12.80;99.90;;;;;;4963297;28;20047;-81
2022/09/12 04:14:13;;;;;;;14.15;12.65;;;12.70;99.90;;;;;;4966510;28;20050;-79
2022/09/12 04:16:38;;;;;;;12.00;10.80;;;12.70;99.90;;;;;;4960039;28;20078;-81
2022/09/12 04:19:04;;;;;;;26.65;19.27;;;12.70;99.90;;;;;;4962413;28;20118;-80
2022/09/12 04:21:32;;;;;;;15.60;13.95;;;12.60;99.90;;;;;;4966791;28;20047;-81
2022/09/12 04:23:58;;;;;;;17.42;15.60;;;12.60;99.90;;;;;;4969518;28;20046;-79
2022/09/12 04:26:23;;;;;;;16.50;14.38;;;12.60;99.90;;;;;;4964855;28;20053;-81
2022/09/12 04:28:53;;;;;;;14.23;12.82;;;12.60;99.90;;;;;;4963169;28;20038;-83
2022/09/12 04:31:22;;;;;;;16.67;15.07;;;12.60;99.90;;;;;;4949575;28;20761;-83
2022/09/12 04:33:56;;;;;;;16.48;14.77;;;12.60;99.90;;;;;;4949355;28;20500;-82
2022/09/12 04:36:23;;;;;;;12.20;11.20;;;12.60;99.90;;;;;;4968887;28;20059;-81
2022/09/12 04:38:49;;;;;;;12.73;11.48;;;12.60;99.90;;;;;;4978503;28;20058;-82
2022/09/12 04:41:19;;;;;;;10.15;9.25;;;12.50;99.90;;;;;;4960910;28;20038;-80
2022/09/12 04:43:46;;;;;;;11.82;10.73;;;12.50;99.90;;;;;;4961539;28;20055;-79
2022/09/12 04:46:14;;;;;;;16.70;15.00;;;12.50;99.90;;;;;;4961889;28;20440;-82
2022/09/12 04:48:40;;;;;;;13.02;11.82;;;12.50;99.90;;;;;;4962044;28;20083;-82
2022/09/12 04:51:12;;;;;;;13.65;12.40;;;12.60;99.90;;;;;;4959776;28;20503;-84
2022/09/12 04:53:38;;;;;;;16.90;15.20;;;12.60;99.90;;;;;;4961365;28;20442;-81
2022/09/12 04:56:06;;;;;;;14.52;13.05;;;12.60;99.90;;;;;;4991646;28;20050;-82
2022/09/12 04:58:36;;;;;;;12.18;11.00;;;12.60;99.90;;;;;;4962942;28;20444;-84
2022/09/12 05:01:14;;;;;;;19.38;10.82;;;12.70;99.90;;;;;;4944461;28;20042;-83
2022/09/12 05:03:48;;;;;;;15.13;13.45;;;12.70;99.90;;;;;;4962685;28;20066;-84
2022/09/12 05:07:06;;;;;;;16.13;14.57;;;12.60;99.90;;;;;;4956781;28;20108;-83
2022/09/12 05:10:13;;;;;;;19.25;15.65;;;12.70;99.90;;;;;;4945020;28;20049;-84
2022/09/12 05:12:42;;;;;;;18.23;15.13;;;12.80;99.90;;;;;;4928197;28;20049;-83
2022/09/12 05:15:08;;;;;;;19.63;16.13;;;12.80;99.90;;;;;;4963080;28;20039;-83
2022/09/12 05:17:49;;;;;;;17.63;15.80;;;13.00;99.90;;;;;;4961516;28;20455;-80
2022/09/12 05:20:24;;;;;;;17.20;15.38;;;13.00;99.90;;;;;;4945066;28;20054;-82
2022/09/12 05:22:50;;;;;;;16.38;14.68;;;13.10;99.90;;;;;;4945325;28;20034;-83
2022/09/12 05:25:15;;;;;;;22.20;19.70;;;13.30;99.90;;;;;;4959097;28;20100;-83
2022/09/12 05:27:41;;;;;;;24.00;20.95;;;13.30;99.90;;;;;;4942287;28;20470;-83
2022/09/12 05:30:08;;;;;;;26.42;23.70;;;14.10;99.90;;;;;;4976161;28;20097;-83
2022/09/12 05:32:34;;;;;;;25.83;22.13;;;13.60;99.90;;;;;;4977266;28;20054;-83
2022/09/12 05:35:00;;;;;;;27.70;24.52;;;13.70;99.90;;;;;;4949708;28;20071;-83
2022/09/12 05:37:25;;;;;;;29.42;26.30;;;13.80;99.90;;;;;;4958153;28;20417;-83
2022/09/12 05:39:51;;;;;;;29.23;25.50;;;14.00;99.90;;;;;;4963220;28;20085;-82
2022/09/12 05:42:22;;;;;;;27.52;24.63;;;14.10;99.90;;;;;;4992028;28;20050;-83
2022/09/12 05:44:48;;;;;;;28.75;23.77;;;14.20;99.90;;;;;;4959207;28;20035;-81
2022/09/12 05:47:15;;;;;;;27.02;24.27;;;14.40;99.90;;;;;;4987712;28;20058;-82
2022/09/12 05:49:42;;;;;;;27.52;24.75;;;14.60;99.90;;;;;;4963566;28;20110;-82
2022/09/12 05:52:07;;;;;;;28.17;25.17;;;14.80;99.90;;;;;;4961628;28;20093;-83
2022/09/12 05:54:33;;;;;;;27.25;24.50;;;14.90;99.90;;;;;;4957552;28;20046;-82
2022/09/12 05:56:59;;;;;;;28.27;25.35;;;14.90;99.90;;;;;;4964138;28;20170;-79
2022/09/12 05:59:24;;;;;;;29.33;25.60;;;15.20;99.90;;;;;;4958840;28;20063;-77
2022/09/12 06:01:51;;;;;;;32.22;24.58;;;14.90;99.90;;;;;;4955068;28;20049;-82
2022/09/12 06:04:18;;;;;;;28.38;25.38;;;14.80;99.90;;;;;;4958333;28;20273;-82
2022/09/12 06:06:44;;;;;;;29.40;26.23;;;14.90;99.90;;;;;;4943212;28;20571;-82
2022/09/12 06:09:11;;;;;;;29.42;26.33;;;14.90;99.90;;;;;;4991997;28;21716;-80
2022/09/12 06:11:39;;;;;;;31.90;28.48;;;14.90;99.90;;;;;;4960388;28;20047;-78
2022/09/12 06:14:06;;;;;;;29.77;26.02;;;14.90;99.90;;;;;;4960507;28;20684;-81
2022/09/12 06:16:33;;;;;;;30.60;27.45;;;14.90;99.90;;;;;;4960670;28;20041;-79
2022/09/12 06:19:02;;;;;;;30.85;27.38;;;15.00;99.90;;;;;;4960099;28;20089;-81
2022/09/12 06:21:30;;;;;;;32.45;28.90;;;15.00;99.90;;;;;;4964436;28;20126;-81
2022/09/12 06:23:57;;;;;;;39.22;31.45;;;15.00;99.90;;;;;;4963638;28;20854;-80
2022/09/12 06:26:24;;;;;;;34.58;29.70;;;15.00;99.90;;;;;;4962127;28;20101;-78
2022/09/12 06:28:52;;;;;;;38.78;33.33;;;15.00;99.90;;;;;;4998504;28;20039;-81
2022/09/12 06:31:20;;;;;;;40.95;32.42;;;15.00;99.90;;;;;;4992841;28;20047;-81
2022/09/12 06:33:49;;;;;;;39.60;32.75;;;15.10;99.90;;;;;;4961048;28;20070;-78
2022/09/12 06:36:20;;;;;;;36.97;32.60;;;15.10;99.90;;;;;;4958290;28;20575;-81
2022/09/12 06:38:46;;;;;;;35.72;31.80;;;15.10;99.90;;;;;;4959814;28;20510;-79
2022/09/12 06:41:12;;;;;;;41.58;33.60;;;15.20;99.90;;;;;;4979982;28;20039;-80
2022/09/12 06:43:39;;;;;;;40.63;34.13;;;15.20;99.90;;;;;;4968749;28;20057;-82
2022/09/12 06:46:06;;;;;;;40.28;33.17;;;15.20;99.90;;;;;;4960390;28;20102;-81
2022/09/12 06:48:32;;;;;;;37.30;32.65;;;15.20;99.90;;;;;;4962388;28;20034;-80
2022/09/12 06:51:03;;;;;;;38.88;34.28;;;15.30;99.90;;;;;;4962156;28;20035;-80
2022/09/12 06:53:32;;;;;;;38.60;33.88;;;15.30;99.90;;;;;;4967967;28;20109;-81
2022/09/12 06:56:05;;;;;;;40.42;34.47;;;15.40;99.90;;;;;;4964514;28;20046;-78
2022/09/12 06:58:33;;;;;;;41.53;34.50;;;15.40;99.90;;;;;;4962021;28;20451;-81
2022/09/12 07:01:06;;;;;;;44.67;34.35;;;15.40;99.90;;;;;;4962878;28;20035;-81
2022/09/12 07:03:32;;;;;;;36.92;32.92;;;15.40;99.90;;;;;;4963002;28;20547;-81
2022/09/12 07:06:10;;;;;;;39.42;34.95;;;15.50;99.90;;;;;;4960654;28;20042;-81
2022/09/12 07:08:36;;;;;;;40.33;33.58;;;15.50;99.90;;;;;;4975878;28;20368;-81
2022/09/12 07:11:10;;;;;;;36.97;33.00;;;15.50;99.90;;;;;;4962100;28;20495;-81
2022/09/12 07:13:36;;;;;;;43.33;35.33;;;15.50;99.90;;;;;;4963266;28;20083;-80
2022/09/12 07:16:04;;;;;;;37.55;32.42;;;15.60;99.90;;;;;;4976357;28;20047;-81
2022/09/12 07:18:30;;;;;;;38.22;32.53;;;15.60;99.90;;;;;;4960043;28;20161;-80
2022/09/12 07:20:58;;;;;;;44.63;34.95;;;15.50;99.90;;;;;;4964499;28;20045;-80
2022/09/12 07:23:23;;;;;;;40.90;33.17;;;15.60;99.90;;;;;;4962664;28;20122;-81
2022/09/12 07:25:55;;;;;;;40.17;33.45;;;15.70;99.90;;;;;;4948928;28;20503;-81
2022/09/12 07:28:25;;;;;;;39.53;33.53;;;15.70;99.90;;;;;;4980626;28;20069;-80
2022/09/12 07:30:52;;;;;;;38.38;32.67;;;15.80;99.90;;;;;;4975086;28;20039;-81
2022/09/12 07:33:22;;;;;;;37.80;32.80;;;15.90;99.90;;;;;;4961048;28;20459;-81
2022/09/12 07:35:48;;;;;;;37.05;31.42;;;15.90;99.90;;;;;;4958573;28;20158;-81
2022/09/12 07:38:15;;;;;;;37.33;32.60;;;16.00;99.90;;;;;;4960665;28;20137;-80
2022/09/12 07:40:40;;;;;;;39.80;31.80;;;16.10;99.90;;;;;;4962353;28;20082;-81
2022/09/12 07:43:06;;;;;;;34.35;30.65;;;16.30;99.90;;;;;;4947098;28;20471;-79
2022/09/12 07:45:32;;;;;;;36.15;32.22;;;16.40;99.90;;;;;;4967415;28;20062;-81
2022/09/12 07:47:57;;;;;;;36.65;31.08;;;16.50;99.90;;;;;;4961904;28;20114;-80
2022/09/12 07:50:23;;;;;;;35.67;30.35;;;16.50;99.90;;;;;;4961844;28;20046;-81
2022/09/12 07:52:49;;;;;;;34.67;30.42;;;16.50;99.90;;;;;;4965306;28;20053;-81
2022/09/12 07:55:15;;;;;;;32.67;29.15;;;16.80;99.90;;;;;;4966655;28;20062;-79
2022/09/12 07:57:41;;;;;;;33.33;28.98;;;16.60;99.90;;;;;;4969792;28;20031;-81
2022/09/12 08:00:07;;;;;;;34.75;29.08;;;16.60;99.90;;;;;;4968332;28;20070;-80
2022/09/12 08:02:33;;;;;;;33.28;29.40;;;16.60;99.90;;;;;;4968653;28;20065;-81
2022/09/12 08:04:59;;;;;;;34.15;29.40;;;16.70;99.90;;;;;;4963714;28;20050;-81
2022/09/12 08:07:25;;;;;;;31.15;27.65;;;16.70;99.90;;;;;;4983485;28;20050;-81
2022/09/12 08:09:50;;;;;;;32.10;28.73;;;16.70;99.90;;;;;;4965672;28;20050;-82
2022/09/12 08:12:16;;;;;;;32.38;26.90;;;16.80;99.90;;;;;;4967798;28;20046;-81
2022/09/12 08:14:42;;;;;;;30.52;27.45;;;16.80;99.90;;;;;;4965606;28;20054;-81
2022/09/12 08:17:08;;;;;;;32.33;27.38;;;16.90;99.90;;;;;;4963763;28;20030;-81
2022/09/12 08:19:34;;;;;;;31.85;28.40;;;16.90;99.90;;;;;;4994992;28;20050;-82
2022/09/12 08:21:59;;;;;;;30.85;27.60;;;17.00;99.90;;;;;;4964856;28;20066;-82
2022/09/12 08:24:25;;;;;;;34.13;28.88;;;17.00;99.90;;;;;;4994476;28;20043;-81
2022/09/12 08:26:51;;;;;;;34.22;28.02;;;17.20;99.90;;;;;;4961851;28;20047;-81
2022/09/12 08:29:16;;;;;;;33.55;27.40;;;17.30;99.90;;;;;;4960652;28;20038;-83
2022/09/12 08:32:00;;;;;;;30.52;27.10;;;17.40;99.90;;;;;;4959535;28;20118;-82
2022/09/12 08:34:26;;;;;;;34.70;28.48;;;17.50;99.90;;;;;;4960550;28;20043;-82
2022/09/12 08:36:54;;;;;;;30.30;27.10;;;17.60;99.90;;;;;;4976424;28;20047;-82
2022/09/12 08:39:22;;;;;;;35.05;29.95;;;17.70;99.90;;;;;;4958741;28;20101;-82
2022/09/12 08:42:00;;;;;;;36.33;28.50;;;17.80;99.90;;;;;;4976166;28;20054;-82
2022/09/12 08:44:39;;;;;;;35.38;31.58;;;17.90;99.90;;;;;;4959038;28;20050;-82
2022/09/12 08:47:35;;;;;;;35.15;29.45;;;18.00;99.90;;;;;;4959820;28;20093;-82
2022/09/12 08:50:07;;;;;;;38.42;29.52;;;18.20;99.90;;;;;;4938202;28;22044;-83
2022/09/12 08:52:52;;;;;;;37.72;30.60;;;18.50;99.90;;;;;;4974859;28;20062;-83
2022/09/12 08:56:17;;;;;;;33.78;29.83;;;18.70;99.90;;;;;;4956261;28;20077;-83
2022/09/12 08:59:37;;;;;;;36.42;31.33;;;18.90;99.90;;;;;;4961502;28;20057;-82
2022/09/12 09:02:26;;;;;;;35.70;30.95;;;19.20;99.90;;;;;;4945008;28;20043;-83
2022/09/12 09:05:06;;;;;;;41.33;34.13;;;19.40;99.90;;;;;;4947459;28;20133;-83
2022/09/12 09:08:09;;;;;;;37.58;33.22;;;19.50;99.90;;;;;;4947294;28;20039;-83
2022/09/12 09:11:01;;;;;;;50.05;39.10;;;19.50;99.90;;;;;;4958514;28;20043;-81
2022/09/12 09:16:45;;;;;;;46.55;36.72;;;19.60;99.90;;;;;;4948364;28;21735;-82
2022/09/12 09:19:22;;;;;;;49.15;37.90;;;19.60;99.90;;;;;;4949568;28;20051;-79
2022/09/12 09:21:58;;;;;;;51.40;37.35;;;19.70;99.90;;;;;;4948151;28;20055;-82
2022/09/12 09:24:35;;;;;;;44.95;36.45;;;19.70;99.90;;;;;;4965088;28;20077;-80
2022/09/12 09:27:05;;;;;;;44.80;36.60;;;19.80;99.90;;;;;;4956604;28;21297;-78
2022/09/12 09:29:47;;;;;;;44.70;37.35;;;20.10;99.90;;;;;;4977985;28;20054;-78
2022/09/12 09:32:18;;;;;;;54.00;35.95;;;20.20;99.90;;;;;;4952433;28;20053;-81
2022/09/12 09:34:43;;;;;;;46.42;36.75;;;20.30;99.90;;;;;;4954977;28;20042;-81
2022/09/12 09:37:19;;;;;;;41.65;34.72;;;20.30;99.90;;;;;;4955144;28;20046;-80
2022/09/12 09:40:10;;;;;;;45.83;36.47;;;20.50;99.90;;;;;;4952285;28;20049;-81
2022/09/12 09:44:01;;;;;;;44.38;36.00;;;20.70;99.90;;;;;;4962570;28;20076;-84
2022/09/12 09:46:29;;;;;;;36.08;31.65;;;20.90;99.90;;;;;;4958123;28;20054;-85
2022/09/12 10:01:23;;;;;;;31.33;26.83;;;21.50;99.90;;;;;;4924392;29;20071;-85
2022/09/12 10:05:22;;;;;;;29.67;26.17;;;21.90;99.90;;;;;;4923176;29;20107;-85
2022/09/12 10:08:31;;;;;;;29.70;26.45;;;22.20;99.90;;;;;;4905913;29;20047;-85
2022/09/12 10:12:42;;;;;;;30.20;24.85;;;22.30;99.90;;;;;;4925670;29;20161;-84
2022/09/12 10:16:29;;;;;;;26.40;23.33;;;22.50;99.90;;;;;;4869078;29;20060;-84
2022/09/12 10:27:31;;;;;;;27.10;23.63;;;23.30;99.90;;;;;;4879441;29;20051;-85
2022/09/12 10:30:19;;;;;;;26.42;23.10;;;23.50;99.90;;;;;;4821418;29;20068;-85
2022/09/12 10:32:50;;;;;;;24.75;21.92;;;23.70;99.90;;;;;;4843227;29;20041;-84
2022/09/12 10:35:27;;;;;;;26.55;23.08;;;23.70;99.90;;;;;;4911484;28;20043;-82
2022/09/12 10:39:02;;;;;;;27.02;22.33;;;23.60;99.90;;;;;;4960408;28;20042;-82
2022/09/12 10:41:36;;;;;;;27.65;22.83;;;23.70;99.90;;;;;;4927879;28;20042;-82
2022/09/12 10:44:08;;;;;;;28.35;20.67;;;23.90;99.90;;;;;;4959023;28;20167;-81
2022/09/12 10:46:34;;;;;;;23.75;20.90;;;24.10;99.90;;;;;;4961370;28;20051;-80
2022/09/12 10:49:38;;;;;;;21.98;19.42;;;24.30;99.90;;;;;;4961390;28;20051;-81
2022/09/12 10:52:24;;;;;;;20.85;17.58;;;24.40;99.90;;;;;;4948287;28;20153;-78
2022/09/12 10:54:50;;;;;;;20.10;16.65;;;24.40;99.90;;;;;;4941833;28;20113;-80
2022/09/12 10:57:41;;;;;;;20.85;18.00;;;24.50;99.90;;;;;;4955674;28;20380;-81
2022/09/12 11:00:12;;;;;;;20.27;17.63;;;24.50;99.90;;;;;;4963162;28;20039;-82
2022/09/12 11:03:15;;;;;;;22.33;18.33;;;24.60;99.90;;;;;;4950067;28;20046;-80
2022/09/12 11:05:53;;;;;;;18.13;16.23;;;24.80;99.90;;;;;;4981270;28;20061;-79
2022/09/12 11:08:50;;;;;;;17.15;15.35;;;24.90;99.90;;;;;;4958535;28;20522;-82
2022/09/12 11:12:10;;;;;;;19.55;17.42;;;25.00;99.90;;;;;;4967022;28;20053;-82
2022/09/12 11:15:07;;;;;;;18.65;16.85;;;25.00;99.90;;;;;;4942426;28;20043;-82
2022/09/12 11:17:41;;;;;;;20.35;16.67;;;25.10;99.90;;;;;;4895687;28;20079;-82
2022/09/12 11:20:27;;;;;;;22.77;18.65;;;25.00;99.90;;;;;;4962850;28;20181;-82
2022/09/12 11:23:36;;;;;;;15.57;13.77;;;25.00;99.90;;;;;;4964053;28;20142;-78
2022/09/12 11:26:11;;;;;;;18.77;15.30;;;25.10;99.90;;;;;;4964482;28;20031;-82
2022/09/12 11:28:43;;;;;;;17.77;15.73;;;25.20;99.90;;;;;;4962652;28;20185;-82
2022/09/12 11:31:27;;;;;;;19.20;11.80;;;25.30;99.90;;;;;;4964018;28;20070;-82
2022/09/12 11:33:54;;;;;;;13.57;11.30;;;25.10;99.90;;;;;;4962591;28;20047;-80
2022/09/12 11:36:40;;;;;;;14.45;10.18;;;25.10;99.90;;;;;;4959598;28;20062;-78
2022/09/12 11:39:12;;;;;;;11.00;9.90;;;25.10;99.90;;;;;;4955048;28;20137;-81
2022/09/12 11:41:44;;;;;;;11.82;10.52;;;24.80;99.90;;;;;;4979635;28;20564;-81
2022/09/12 11:44:14;;;;;;;16.15;12.13;;;24.70;99.90;;;;;;4963434;28;20050;-81
2022/09/12 11:46:42;;;;;;;14.13;11.40;;;24.50;99.90;;;;;;4962434;28;20075;-80
2022/09/12 11:49:14;;;;;;;14.23;10.80;;;24.50;99.90;;;;;;4975763;28;20035;-80
2022/09/12 11:52:08;;;;;;;13.20;11.82;;;24.50;99.90;;;;;;4965739;28;20101;-80
2022/09/12 11:54:49;;;;;;;18.08;12.95;;;24.60;99.90;;;;;;4963670;28;20057;-80
2022/09/12 11:57:39;;;;;;;17.25;12.13;;;24.60;99.90;;;;;;4962356;28;20060;-79
2022/09/12 12:00:09;;;;;;;16.83;12.85;;;25.00;99.90;;;;;;4964809;28;20129;-82
2022/09/12 12:03:26;;;;;;;13.30;11.90;;;25.00;99.90;;;;;;4964635;28;20051;-80
2022/09/12 12:06:06;;;;;;;12.75;11.45;;;25.00;99.90;;;;;;4930461;28;20051;-82
2022/09/12 12:08:38;;;;;;;16.60;12.15;;;25.00;99.90;;;;;;4995212;28;20472;-82
2022/09/12 12:11:06;;;;;;;11.10;7.70;;;25.10;99.90;;;;;;4965986;28;20038;-81
2022/09/12 12:13:57;;;;;;;19.10;9.93;;;25.30;99.90;;;;;;4963583;28;20051;-82
2022/09/12 12:16:30;;;;;;;11.07;9.88;;;25.50;99.90;;;;;;4993238;28;20130;-81
2022/09/12 12:18:59;;;;;;;9.45;8.45;;;25.50;99.90;;;;;;4977180;28;20472;-82
2022/09/12 12:21:33;;;;;;;10.13;9.13;;;25.50;99.90;;;;;;4963686;28;20563;-82
2022/09/12 12:24:08;;;;;;;18.42;12.35;;;25.60;99.90;;;;;;4964291;28;20067;-81
2022/09/12 12:26:39;;;;;;;11.95;10.85;;;25.60;99.90;;;;;;4967310;28;20074;-81
2022/09/12 12:29:12;;;;;;;11.68;10.35;;;25.70;99.90;;;;;;4978866;28;20206;-81
2022/09/12 12:32:00;;;;;;;11.40;9.35;;;25.50;99.90;;;;;;4963091;28;20047;-82
2022/09/12 12:34:29;;;;;;;9.40;8.52;;;25.60;99.90;;;;;;4993508;28;20051;-80
2022/09/12 12:36:56;;;;;;;8.75;7.78;;;25.60;99.90;;;;;;4958292;28;20056;-81
2022/09/12 12:39:31;;;;;;;8.35;7.07;;;25.60;99.90;;;;;;4963996;28;20050;-81
2022/09/12 12:42:00;;;;;;;10.82;7.80;;;25.60;99.90;;;;;;4976773;28;20062;-82
2022/09/12 12:44:44;;;;;;;10.05;5.78;;;25.70;99.90;;;;;;4978014;28;20070;-81
2022/09/12 12:47:26;;;;;;;10.35;7.85;;;25.70;99.80;;;;;;4981097;28;20043;-80
2022/09/12 12:49:54;;;;;;;9.10;7.35;;;25.70;99.90;;;;;;4962082;28;20039;-82
2022/09/12 12:52:20;;;;;;;6.85;6.00;;;25.60;99.90;;;;;;4964595;28;20039;-80
2022/09/12 12:54:45;;;;;;;6.30;4.95;;;25.60;99.90;;;;;;4957951;28;20081;-81
2022/09/12 12:57:35;;;;;;;5.65;4.70;;;25.60;99.60;;;;;;4961774;28;20046;-82
2022/09/12 13:00:07;;;;;;;6.18;5.50;;;25.60;99.90;;;;;;4967909;28;20062;-80
2022/09/12 13:02:40;;;;;;;7.68;5.80;;;25.60;99.90;;;;;;4980559;28;20034;-81
2022/09/12 13:05:18;;;;;;;6.10;4.47;;;25.60;99.90;;;;;;4962828;28;20063;-82
2022/09/12 13:07:44;;;;;;;5.85;4.57;;;25.70;99.90;;;;;;4959906;28;20092;-82
2022/09/12 13:10:23;;;;;;;7.50;3.88;;;25.80;99.90;;;;;;4963149;28;20407;-82
2022/09/12 13:12:50;;;;;;;5.65;5.00;;;25.80;99.60;;;;;;4964292;28;20161;-82
2022/09/12 13:15:34;;;;;;;7.30;3.85;;;25.80;99.30;;;;;;4963063;28;20039;-82
2022/09/12 13:18:16;;;;;;;3.92;3.55;;;25.70;99.00;;;;;;4963435;28;20058;-81
2022/09/12 13:21:00;;;;;;;5.28;4.47;;;25.70;98.90;;;;;;4963798;28;20034;-78
2022/09/12 13:23:29;;;;;;;8.43;6.57;;;25.60;99.50;;;;;;4976113;28;20449;-82
2022/09/12 13:25:59;;;;;;;8.30;4.82;;;25.60;99.40;;;;;;4992519;28;20571;-82
2022/09/12 13:28:26;;;;;;;6.72;4.75;;;25.60;99.90;;;;;;4960899;28;20039;-82
2022/09/12 13:31:20;;;;;;;5.75;3.80;;;25.60;99.70;;;;;;4963215;28;20051;-82
2022/09/12 13:33:50;;;;;;;6.03;5.40;;;25.60;99.40;;;;;;4963046;28;20392;-81
2022/09/12 13:36:38;;;;;;;9.18;7.43;;;25.60;99.90;;;;;;4975095;28;20086;-82